sensor_id;sensor_type;location;lat;lon;timestamp;pressure;altitude;pressure_sealevel;temperature;humidity
38054;BME280;23859;50.672;7.164;2023-04-30T00:01:22;59219.88;;;10.88;100.00
38054;BME280;23859;50.672;7.164;2023-04-30T00:03:48;59209.66;;;10.83;100.00
38054;BME280;23859;50.672;7.164;2023-04-30T00:06:14;59207.72;;;10.81;100.00
38054;BME280;23859;50.672;7.164;2023-04-30T00:08:40;59212.47;;;10.81;100.00
38054;BME280;23859;50.672;7.164;2023-04-30T00:11:06;59213.63;;;10.79;100.00
38054;BME280;23859;50.672;7.164;2023-04-30T00:13:32;59203.44;;;10.74;100.00
38054;BME280;23859;50.672;7.164;2023-04-30T00:15:59;59200.34;;;10.66;100.00
38054;BME280;23859;50.672;7.164;2023-04-30T00:18:25;59193.59;;;10.64;100.00
38054;BME280;23859;50.672;7.164;2023-04-30T00:20:51;59212.97;;;10.81;100.00
38054;BME280;23859;50.672;7.164;2023-04-30T00:23:18;59215.75;;;10.87;100.00
38054;BME280;23859;50.672;7.164;2023-04-30T00:25:44;59209.84;;;10.81;100.00
38054;BME280;23859;50.672;7.164;2023-04-30T00:28:10;59199.19;;;10.67;100.00
38054;BME280;23859;50.672;7.164;2023-04-30T00:30:36;59181.31;;;10.52;100.00
38054;BME280;23859;50.672;7.164;2023-04-30T00:33:02;59089.34;;;9.67;100.00
38054;BME280;23859;50.672;7.164;2023-04-30T00:35:28;59171.66;;;10.40;100.00
38054;BME280;23859;50.672;7.164;2023-04-30T00:37:54;59172.31;;;10.38;100.00
38054;BME280;23859;50.672;7.164;2023-04-30T00:40:20;59137.91;;;10.03;100.00
38054;BME280;23859;50.672;7.164;2023-04-30T00:42:47;59164.28;;;10.32;100.00
38054;BME280;23859;50.672;7.164;2023-04-30T00:45:13;59172.63;;;10.41;100.00
38054;BME280;23859;50.672;7.164;2023-04-30T00:47:40;59174.59;;;10.43;100.00
38054;BME280;23859;50.672;7.164;2023-04-30T00:50:06;59158.88;;;10.27;100.00
38054;BME280;23859;50.672;7.164;2023-04-30T00:52:34;59152.47;;;10.20;100.00
38054;BME280;23859;50.672;7.164;2023-04-30T00:55:00;59138.34;;;10.11;100.00
38054;BME280;23859;50.672;7.164;2023-04-30T00:57:27;59144.44;;;10.15;100.00
38054;BME280;23859;50.672;7.164;2023-04-30T00:59:54;59149.34;;;10.20;100.00
38054;BME280;23859;50.672;7.164;2023-04-30T01:02:20;59168.34;;;10.42;100.00
38054;BME280;23859;50.672;7.164;2023-04-30T01:04:46;59164.78;;;10.33;100.00
38054;BME280;23859;50.672;7.164;2023-04-30T01:07:12;59150.66;;;10.24;100.00
38054;BME280;23859;50.672;7.164;2023-04-30T01:09:38;59151.63;;;10.25;100.00
38054;BME280;23859;50.672;7.164;2023-04-30T01:17:53;59121.16;;;9.94;100.00
38054;BME280;23859;50.672;7.164;2023-04-30T01:20:20;59111.50;;;9.82;100.00
38054;BME280;23859;50.672;7.164;2023-04-30T01:23:10;59104.78;;;9.72;100.00
38054;BME280;23859;50.672;7.164;2023-04-30T01:28:18;59132.00;;;9.97;100.00
38054;BME280;23859;50.672;7.164;2023-04-30T01:30:45;59114.59;;;9.82;100.00
38054;BME280;23859;50.672;7.164;2023-04-30T01:33:12;59100.84;;;9.68;100.00
38054;BME280;23859;50.672;7.164;2023-04-30T01:38:55;59061.38;;;9.31;100.00
38054;BME280;23859;50.672;7.164;2023-04-30T01:41:53;59058.25;;;9.30;100.00
38054;BME280;23859;50.672;7.164;2023-04-30T01:47:34;59049.78;;;9.17;100.00
38054;BME280;23859;50.672;7.164;2023-04-30T01:51:01;59042.88;;;9.10;100.00
38054;BME280;23859;50.672;7.164;2023-04-30T01:53:02;59040.44;;;9.07;100.00
38054;BME280;23859;50.672;7.164;2023-04-30T01:55:42;59032.09;;;8.99;100.00
38054;BME280;23859;50.672;7.164;2023-04-30T01:58:12;59042.88;;;9.10;100.00
38054;BME280;23859;50.672;7.164;2023-04-30T02:00:40;59026.03;;;8.95;100.00
38054;BME280;23859;50.672;7.164;2023-04-30T02:03:06;59020.28;;;8.87;100.00
38054;BME280;23859;50.672;7.164;2023-04-30T02:05:32;59011.13;;;8.83;100.00
38054;BME280;23859;50.672;7.164;2023-04-30T02:07:58;59011.31;;;8.80;100.00
38054;BME280;23859;50.672;7.164;2023-04-30T02:10:25;59010.97;;;8.77;100.00
38054;BME280;23859;50.672;7.164;2023-04-30T02:12:52;59000.97;;;8.70;100.00
38054;BME280;23859;50.672;7.164;2023-04-30T02:15:18;58996.91;;;8.68;100.00
38054;BME280;23859;50.672;7.164;2023-04-30T02:17:44;59002.63;;;8.69;100.00
38054;BME280;23859;50.672;7.164;2023-04-30T02:20:11;58999.00;;;8.76;100.00
38054;BME280;23859;50.672;7.164;2023-04-30T02:22:37;59001.66;;;8.68;100.00
38054;BME280;23859;50.672;7.164;2023-04-30T02:25:03;58999.69;;;8.66;100.00
38054;BME280;23859;50.672;7.164;2023-04-30T02:27:31;58992.16;;;8.61;100.00
38054;BME280;23859;50.672;7.164;2023-04-30T02:29:58;59002.00;;;8.63;100.00
38054;BME280;23859;50.672;7.164;2023-04-30T02:32:24;58987.56;;;8.59;100.00
38054;BME280;23859;50.672;7.164;2023-04-30T02:34:50;58977.91;;;8.47;100.00
38054;BME280;23859;50.672;7.164;2023-04-30T02:37:16;58973.69;;;8.40;100.00
38054;BME280;23859;50.672;7.164;2023-04-30T02:39:42;58957.31;;;8.26;100.00
38054;BME280;23859;50.672;7.164;2023-04-30T02:42:08;58950.28;;;8.21;100.00
38054;BME280;23859;50.672;7.164;2023-04-30T02:44:35;58953.88;;;8.22;100.00
38054;BME280;23859;50.672;7.164;2023-04-30T02:47:01;58962.72;;;8.23;100.00
38054;BME280;23859;50.672;7.164;2023-04-30T02:49:28;58958.13;;;8.21;100.00
38054;BME280;23859;50.672;7.164;2023-04-30T02:51:54;58961.41;;;8.27;100.00
38054;BME280;23859;50.672;7.164;2023-04-30T02:54:20;58979.06;;;8.45;100.00
38054;BME280;23859;50.672;7.164;2023-04-30T02:56:46;58981.69;;;8.45;100.00
38054;BME280;23859;50.672;7.164;2023-04-30T02:59:13;58955.84;;;8.24;100.00
38054;BME280;23859;50.672;7.164;2023-04-30T03:01:39;58952.25;;;8.15;100.00
38054;BME280;23859;50.672;7.164;2023-04-30T03:04:05;58960.09;;;8.23;100.00
38054;BME280;23859;50.672;7.164;2023-04-30T03:06:32;58953.22;;;8.16;100.00
38054;BME280;23859;50.672;7.164;2023-04-30T03:08:59;58952.41;;;8.21;100.00
38054;BME280;23859;50.672;7.164;2023-04-30T03:11:25;58959.78;;;8.20;100.00
38054;BME280;23859;50.672;7.164;2023-04-30T03:13:52;58949.66;;;8.15;100.00
38054;BME280;23859;50.672;7.164;2023-04-30T03:16:21;58938.50;;;8.09;100.00
38054;BME280;23859;50.672;7.164;2023-04-30T03:18:47;58948.31;;;8.11;100.00
38054;BME280;23859;50.672;7.164;2023-04-30T03:21:14;58966.97;;;8.30;100.00
38054;BME280;23859;50.672;7.164;2023-04-30T03:23:40;58947.34;;;8.18;100.00
38054;BME280;23859;50.672;7.164;2023-04-30T03:26:07;58931.31;;;7.99;100.00
38054;BME280;23859;50.672;7.164;2023-04-30T03:28:33;58911.69;;;7.88;100.00
38054;BME280;23859;50.672;7.164;2023-04-30T03:31:00;58916.28;;;7.82;100.00
38054;BME280;23859;50.672;7.164;2023-04-30T03:33:30;58914.31;;;7.80;100.00
38054;BME280;23859;50.672;7.164;2023-04-30T03:35:56;58916.44;;;7.79;100.00
38054;BME280;23859;50.672;7.164;2023-04-30T03:38:22;58906.13;;;7.77;100.00
38054;BME280;23859;50.672;7.164;2023-04-30T03:40:49;58919.88;;;7.83;100.00
38054;BME280;23859;50.672;7.164;2023-04-30T03:43:15;58916.59;;;7.77;100.00
38054;BME280;23859;50.672;7.164;2023-04-30T03:45:41;58898.28;;;7.69;100.00
38054;BME280;23859;50.672;7.164;2023-04-30T03:48:07;58891.75;;;7.65;100.00
38054;BME280;23859;50.672;7.164;2023-04-30T03:50:33;58886.53;;;7.57;100.00
38054;BME280;23859;50.672;7.164;2023-04-30T03:52:59;58892.41;;;7.63;100.00
38054;BME280;23859;50.672;7.164;2023-04-30T03:55:26;58898.59;;;7.64;100.00
38054;BME280;23859;50.672;7.164;2023-04-30T03:57:52;58902.53;;;7.68;100.00
38054;BME280;23859;50.672;7.164;2023-04-30T04:00:18;58909.91;;;7.75;100.00
38054;BME280;23859;50.672;7.164;2023-04-30T04:02:44;58910.06;;;7.81;100.00
38054;BME280;23859;50.672;7.164;2023-04-30T04:05:10;58918.56;;;7.87;100.00
38054;BME280;23859;50.672;7.164;2023-04-30T04:07:36;58929.81;;;7.98;100.00
38054;BME280;23859;50.672;7.164;2023-04-30T04:10:03;58938.34;;;8.04;100.00
38054;BME280;23859;50.672;7.164;2023-04-30T04:12:29;58945.69;;;8.11;100.00
38054;BME280;23859;50.672;7.164;2023-04-30T04:14:55;58943.41;;;8.14;100.00
38054;BME280;23859;50.672;7.164;2023-04-30T04:17:21;58957.97;;;8.24;100.00
38054;BME280;23859;50.672;7.164;2023-04-30T04:19:47;58978.41;;;8.39;100.00
38054;BME280;23859;50.672;7.164;2023-04-30T04:22:13;58983.00;;;8.57;100.00
38054;BME280;23859;50.672;7.164;2023-04-30T04:24:39;59003.13;;;8.69;100.00
38054;BME280;23859;50.672;7.164;2023-04-30T04:27:05;58986.75;;;8.56;100.00
38054;BME280;23859;50.672;7.164;2023-04-30T04:29:31;58986.94;;;8.53;100.00
38054;BME280;23859;50.672;7.164;2023-04-30T04:31:57;58990.19;;;8.59;100.00
38054;BME280;23859;50.672;7.164;2023-04-30T04:34:25;58991.50;;;8.63;100.00
38054;BME280;23859;50.672;7.164;2023-04-30T04:36:51;59002.63;;;8.69;100.00
38054;BME280;23859;50.672;7.164;2023-04-30T04:39:17;59007.38;;;8.76;100.00
38054;BME280;23859;50.672;7.164;2023-04-30T04:41:43;59017.03;;;8.81;100.00
38054;BME280;23859;50.672;7.164;2023-04-30T04:44:09;59024.22;;;8.91;100.00
38054;BME280;23859;50.672;7.164;2023-04-30T04:46:36;59030.13;;;8.97;100.00
38054;BME280;23859;50.672;7.164;2023-04-30T04:49:07;59030.44;;;9.00;100.00
38054;BME280;23859;50.672;7.164;2023-04-30T04:51:33;59052.06;;;9.14;100.00
38054;BME280;23859;50.672;7.164;2023-04-30T04:53:59;59042.56;;;9.07;100.00
38054;BME280;23859;50.672;7.164;2023-04-30T04:56:25;59043.88;;;9.11;100.00
38054;BME280;23859;50.672;7.164;2023-04-30T04:58:51;59048.44;;;9.13;100.00
38054;BME280;23859;50.672;7.164;2023-04-30T05:01:17;59041.91;;;9.09;100.00
38054;BME280;23859;50.672;7.164;2023-04-30T05:03:43;59044.22;;;9.06;100.00
38054;BME280;23859;50.672;7.164;2023-04-30T05:06:09;59037.63;;;9.10;100.00
38054;BME280;23859;50.672;7.164;2023-04-30T05:08:36;59047.47;;;9.20;100.00
38054;BME280;23859;50.672;7.164;2023-04-30T05:11:03;59057.63;;;9.25;100.00
38054;BME280;23859;50.672;7.164;2023-04-30T05:13:29;59067.78;;;9.37;100.00
38054;BME280;23859;50.672;7.164;2023-04-30T05:15:55;59056.78;;;9.29;100.00
38054;BME280;23859;50.672;7.164;2023-04-30T05:18:21;59060.06;;;9.27;100.00
38054;BME280;23859;50.672;7.164;2023-04-30T05:20:47;59048.78;;;9.16;100.00
38054;BME280;23859;50.672;7.164;2023-04-30T05:23:13;59051.25;;;9.18;100.00
38054;BME280;23859;50.672;7.164;2023-04-30T05:25:39;59041.91;;;9.09;100.00
38054;BME280;23859;50.672;7.164;2023-04-30T05:28:05;59040.28;;;9.02;100.00
38054;BME280;23859;50.672;7.164;2023-04-30T05:30:32;59045.50;;;9.18;100.00
38054;BME280;23859;50.672;7.164;2023-04-30T05:32:58;59044.69;;;9.14;100.00
38054;BME280;23859;50.672;7.164;2023-04-30T05:35:24;59064.50;;;9.31;100.00
38054;BME280;23859;50.672;7.164;2023-04-30T05:37:50;59070.06;;;9.42;100.00
38054;BME280;23859;50.672;7.164;2023-04-30T05:40:16;59066.44;;;9.33;100.00
38054;BME280;23859;50.672;7.164;2023-04-30T05:42:42;59058.91;;;9.28;100.00
38054;BME280;23859;50.672;7.164;2023-04-30T05:45:09;59068.75;;;9.38;100.00
38054;BME280;23859;50.672;7.164;2023-04-30T05:47:37;59084.81;;;9.49;100.00
38054;BME280;23859;50.672;7.164;2023-04-30T05:50:03;59089.91;;;9.52;100.00
38054;BME280;23859;50.672;7.164;2023-04-30T05:52:29;59086.09;;;9.61;100.00
38054;BME280;23859;50.672;7.164;2023-04-30T05:54:56;59103.47;;;9.68;100.00
38054;BME280;23859;50.672;7.164;2023-04-30T05:57:22;59118.03;;;9.86;100.00
38054;BME280;23859;50.672;7.164;2023-04-30T05:59:48;59136.56;;;10.07;100.00
38054;BME280;23859;50.672;7.164;2023-04-30T06:02:14;59144.13;;;10.12;100.00
38054;BME280;23859;50.672;7.164;2023-04-30T06:04:40;59127.38;;;9.95;100.00
38054;BME280;23859;50.672;7.164;2023-04-30T06:07:07;59161.81;;;10.30;100.00
38054;BME280;23859;50.672;7.164;2023-04-30T06:09:33;59164.78;;;10.33;100.00
38054;BME280;23859;50.672;7.164;2023-04-30T06:11:59;59118.69;;;9.92;100.00
38054;BME280;23859;50.672;7.164;2023-04-30T06:14:27;59130.50;;;9.95;100.00
38054;BME280;23859;50.672;7.164;2023-04-30T06:16:53;59143.47;;;10.06;100.00
38054;BME280;23859;50.672;7.164;2023-04-30T06:19:19;59130.84;;;9.98;100.00
38054;BME280;23859;50.672;7.164;2023-04-30T06:21:45;59138.53;;;10.09;100.00
38054;BME280;23859;50.672;7.164;2023-04-30T06:24:12;59161.97;;;10.27;100.00
38054;BME280;23859;50.672;7.164;2023-04-30T06:26:38;59155.94;;;10.24;100.00
38054;BME280;23859;50.672;7.164;2023-04-30T06:29:04;59151.81;;;10.22;100.00
38054;BME280;23859;50.672;7.164;2023-04-30T06:31:30;59144.44;;;10.15;100.00
38054;BME280;23859;50.672;7.164;2023-04-30T06:33:56;59141.50;;;10.12;100.00
38054;BME280;23859;50.672;7.164;2023-04-30T06:36:22;59152.16;;;10.17;100.00
38054;BME280;23859;50.672;7.164;2023-04-30T06:38:48;59161.97;;;10.35;100.00
38054;BME280;23859;50.672;7.164;2023-04-30T06:41:14;59172.44;;;10.43;100.00
38054;BME280;23859;50.672;7.164;2023-04-30T06:43:42;59138.34;;;10.11;100.00
38054;BME280;23859;50.672;7.164;2023-04-30T06:46:08;59116.56;;;9.92;100.00
38054;BME280;23859;50.672;7.164;2023-04-30T06:48:34;59132.16;;;9.94;100.00
38054;BME280;23859;50.672;7.164;2023-04-30T06:51:00;59124.44;;;9.92;100.00
38054;BME280;23859;50.672;7.164;2023-04-30T06:53:26;59137.72;;;10.05;100.00
38054;BME280;23859;50.672;7.164;2023-04-30T06:55:52;59171.16;;;10.39;100.00
38054;BME280;23859;50.672;7.164;2023-04-30T06:58:18;59163.78;;;10.32;100.00
38054;BME280;23859;50.672;7.164;2023-04-30T07:00:44;59214.94;;;10.83;100.00
38054;BME280;23859;50.672;7.164;2023-04-30T07:03:11;59212.13;;;10.86;100.00
38054;BME280;23859;50.672;7.164;2023-04-30T07:05:37;59209.53;;;10.78;100.00
38054;BME280;23859;50.672;7.164;2023-04-30T07:08:03;59209.00;;;10.85;100.00
38054;BME280;23859;50.672;7.164;2023-04-30T07:10:30;59248.91;;;11.18;100.00
38054;BME280;23859;50.672;7.164;2023-04-30T07:12:56;59249.06;;;11.15;100.00
38054;BME280;23859;50.672;7.164;2023-04-30T07:15:22;59273.97;;;11.43;100.00
38054;BME280;23859;50.672;7.164;2023-04-30T07:17:48;59318.63;;;11.91;100.00
38054;BME280;23859;50.672;7.164;2023-04-30T07:20:14;59269.38;;;11.41;100.00
38054;BME280;23859;50.672;7.164;2023-04-30T07:22:42;59261.53;;;11.25;100.00
38054;BME280;23859;50.672;7.164;2023-04-30T07:25:12;59338.66;;;12.13;100.00
38054;BME280;23859;50.672;7.164;2023-04-30T07:27:38;59436.81;;;13.04;100.00
38054;BME280;23859;50.672;7.164;2023-04-30T07:30:06;59498.59;;;13.72;94.95
38054;BME280;23859;50.672;7.164;2023-04-30T07:32:34;59445.16;;;13.21;95.58
38054;BME280;23859;50.672;7.164;2023-04-30T07:35:01;59537.94;;;14.06;91.62
38054;BME280;23859;50.672;7.164;2023-04-30T07:37:27;59538.91;;;14.15;91.78
38054;BME280;23859;50.672;7.164;2023-04-30T07:39:53;59674.66;;;15.46;86.41
38054;BME280;23859;50.672;7.164;2023-04-30T07:42:19;59755.59;;;16.30;81.12
38054;BME280;23859;50.672;7.164;2023-04-30T07:44:45;59711.09;;;15.77;82.59
38054;BME280;23859;50.672;7.164;2023-04-30T07:47:11;59783.13;;;16.60;79.87
38054;BME280;23859;50.672;7.164;2023-04-30T07:49:37;59873.25;;;17.50;70.83
38054;BME280;23859;50.672;7.164;2023-04-30T07:52:04;60157.06;;;20.34;64.78
38054;BME280;23859;50.672;7.164;2023-04-30T07:54:30;60239.47;;;21.11;59.92
38054;BME280;23859;50.672;7.164;2023-04-30T07:56:56;60203.41;;;20.86;59.00
38054;BME280;23859;50.672;7.164;2023-04-30T07:59:22;60380.53;;;22.63;53.55
38054;BME280;23859;50.672;7.164;2023-04-30T08:01:50;60644.47;;;25.23;47.38
38054;BME280;23859;50.672;7.164;2023-04-30T08:04:16;60739.16;;;26.20;45.68
38054;BME280;23859;50.672;7.164;2023-04-30T08:06:42;60770.06;;;26.45;43.52
38054;BME280;23859;50.672;7.164;2023-04-30T08:09:08;60698.41;;;25.76;43.25
38054;BME280;23859;50.672;7.164;2023-04-30T08:11:34;60634.00;;;25.12;45.63
38054;BME280;23859;50.672;7.164;2023-04-30T08:14:00;60417.56;;;22.97;49.47
38054;BME280;23859;50.672;7.164;2023-04-30T08:16:26;60429.34;;;23.11;49.69
38054;BME280;23859;50.672;7.164;2023-04-30T08:18:52;60374.44;;;22.51;52.30
38054;BME280;23859;50.672;7.164;2023-04-30T08:21:18;60374.13;;;22.48;52.41
38054;BME280;23859;50.672;7.164;2023-04-30T08:23:45;60288.94;;;21.71;53.96
38054;BME280;23859;50.672;7.164;2023-04-30T08:26:11;60197.34;;;20.75;58.31
38054;BME280;23859;50.672;7.164;2023-04-30T08:28:37;60205.78;;;20.83;58.17
38054;BME280;23859;50.672;7.164;2023-04-30T08:31:03;60184.91;;;20.62;60.09
38054;BME280;23859;50.672;7.164;2023-04-30T08:33:29;60214.44;;;20.89;58.25
38054;BME280;23859;50.672;7.164;2023-04-30T08:35:56;60238.28;;;21.13;57.81
38054;BME280;23859;50.672;7.164;2023-04-30T08:38:24;60107.38;;;19.85;57.41
38054;BME280;23859;50.672;7.164;2023-04-30T08:40:56;60279.19;;;21.59;55.23
38054;BME280;23859;50.672;7.164;2023-04-30T08:43:29;60362.97;;;22.40;52.03
38054;BME280;23859;50.672;7.164;2023-04-30T08:45:56;60447.97;;;23.27;50.94
38054;BME280;23859;50.672;7.164;2023-04-30T08:48:23;60465.19;;;23.47;50.64
38054;BME280;23859;50.672;7.164;2023-04-30T08:50:49;60467.88;;;23.47;50.13
38054;BME280;23859;50.672;7.164;2023-04-30T08:53:16;60505.28;;;23.84;48.21
38054;BME280;23859;50.672;7.164;2023-04-30T08:55:42;60487.31;;;23.66;49.31
38054;BME280;23859;50.672;7.164;2023-04-30T08:58:09;60429.41;;;23.03;49.98
38054;BME280;23859;50.672;7.164;2023-04-30T09:00:38;60449.25;;;23.31;49.98
38054;BME280;23859;50.672;7.164;2023-04-30T09:03:07;60387.88;;;22.65;50.09
38054;BME280;23859;50.672;7.164;2023-04-30T09:05:33;60317.47;;;21.97;52.25
38054;BME280;23859;50.672;7.164;2023-04-30T09:07:59;60270.53;;;21.53;55.35
38054;BME280;23859;50.672;7.164;2023-04-30T09:10:25;60150.09;;;20.27;58.51
38054;BME280;23859;50.672;7.164;2023-04-30T09:13:05;60181.28;;;20.53;57.83
38054;BME280;23859;50.672;7.164;2023-04-30T09:15:33;60109.06;;;19.84;57.22
38054;BME280;23859;50.672;7.164;2023-04-30T09:18:14;60072.25;;;19.55;59.67
38054;BME280;23859;50.672;7.164;2023-04-30T09:20:56;60043.47;;;19.26;60.97
38054;BME280;23859;50.672;7.164;2023-04-30T09:23:22;60004.56;;;18.90;57.45
38054;BME280;23859;50.672;7.164;2023-04-30T09:25:49;60043.66;;;19.24;55.20
38054;BME280;23859;50.672;7.164;2023-04-30T09:28:15;60075.91;;;19.56;52.04
38054;BME280;23859;50.672;7.164;2023-04-30T09:30:42;60072.75;;;19.55;49.82
38054;BME280;23859;50.672;7.164;2023-04-30T09:33:08;60065.50;;;19.45;49.70
38054;BME280;23859;50.672;7.164;2023-04-30T09:35:37;60065.19;;;19.42;49.31
38054;BME280;23859;50.672;7.164;2023-04-30T09:38:06;60137.88;;;20.12;46.83
38054;BME280;23859;50.672;7.164;2023-04-30T09:40:40;60181.53;;;20.64;47.49
38054;BME280;23859;50.672;7.164;2023-04-30T09:43:07;60181.22;;;20.61;46.20
38054;BME280;23859;50.672;7.164;2023-04-30T09:45:43;60202.31;;;20.79;45.32
38054;BME280;23859;50.672;7.164;2023-04-30T09:48:14;60179.72;;;20.60;44.54
38054;BME280;23859;50.672;7.164;2023-04-30T09:50:41;60174.94;;;20.52;43.18
38054;BME280;23859;50.672;7.164;2023-04-30T09:53:08;59990.22;;;18.89;44.42
38054;BME280;23859;50.672;7.164;2023-04-30T09:55:35;60093.28;;;19.73;43.45
38054;BME280;23859;50.672;7.164;2023-04-30T09:58:06;60159.03;;;20.36;42.54
38054;BME280;23859;50.672;7.164;2023-04-30T10:00:34;60181.84;;;20.67;46.12
38054;BME280;23859;50.672;7.164;2023-04-30T10:03:06;60194.47;;;20.77;43.02
38054;BME280;23859;50.672;7.164;2023-04-30T10:05:42;60137.50;;;20.17;41.42
38054;BME280;23859;50.672;7.164;2023-04-30T10:08:31;60132.53;;;20.12;40.35
38054;BME280;23859;50.672;7.164;2023-04-30T10:11:02;60189.16;;;20.69;42.88
38054;BME280;23859;50.672;7.164;2023-04-30T10:13:37;60292.00;;;21.66;39.42
38054;BME280;23859;50.672;7.164;2023-04-30T10:16:10;60303.38;;;21.86;39.70
38054;BME280;23859;50.672;7.164;2023-04-30T10:18:39;60247.63;;;21.30;40.69
38054;BME280;23859;50.672;7.164;2023-04-30T10:21:09;60196.63;;;20.76;40.11
38054;BME280;23859;50.672;7.164;2023-04-30T10:23:38;60161.03;;;20.38;39.87
38054;BME280;23859;50.672;7.164;2023-04-30T10:26:05;60113.66;;;19.94;39.89
38054;BME280;23859;50.672;7.164;2023-04-30T10:28:32;60092.50;;;19.70;40.44
38054;BME280;23859;50.672;7.164;2023-04-30T10:30:58;60005.50;;;18.77;42.68
38054;BME280;23859;50.672;7.164;2023-04-30T10:33:45;60066.88;;;19.41;44.92
38054;BME280;23859;50.672;7.164;2023-04-30T10:36:37;60100.38;;;19.86;41.62
38054;BME280;23859;50.672;7.164;2023-04-30T10:39:06;60178.94;;;20.56;42.96
38054;BME280;23859;50.672;7.164;2023-04-30T10:41:33;60235.91;;;21.16;40.75
38054;BME280;23859;50.672;7.164;2023-04-30T10:44:01;60239.50;;;21.25;40.41
38054;BME280;23859;50.672;7.164;2023-04-30T10:46:28;60187.00;;;20.70;42.66
38054;BME280;23859;50.672;7.164;2023-04-30T10:48:54;60181.13;;;20.69;42.57
38054;BME280;23859;50.672;7.164;2023-04-30T10:51:21;60182.59;;;20.57;40.44
38054;BME280;23859;50.672;7.164;2023-04-30T10:53:51;60203.91;;;20.86;44.19
38054;BME280;23859;50.672;7.164;2023-04-30T10:56:31;60184.91;;;20.62;44.04
38054;BME280;23859;50.672;7.164;2023-04-30T10:58:59;60168.81;;;20.49;40.32
38054;BME280;23859;50.672;7.164;2023-04-30T11:01:28;60158.66;;;20.41;39.72
38054;BME280;23859;50.672;7.164;2023-04-30T11:04:10;60155.06;;;20.32;40.45
38054;BME280;23859;50.672;7.164;2023-04-30T11:09:38;60324.25;;;22.07;39.77
38054;BME280;23859;50.672;7.164;2023-04-30T11:12:14;60280.69;;;21.60;40.64
38054;BME280;23859;50.672;7.164;2023-04-30T11:14:43;60462.31;;;23.49;36.88
38054;BME280;23859;50.672;7.164;2023-04-30T11:17:10;60401.44;;;22.83;35.67
38054;BME280;23859;50.672;7.164;2023-04-30T11:19:45;60400.44;;;22.82;37.07
38054;BME280;23859;50.672;7.164;2023-04-30T11:27:27;60368.56;;;22.51;38.65
38054;BME280;23859;50.672;7.164;2023-04-30T11:29:55;60353.25;;;22.41;37.36
38054;BME280;23859;50.672;7.164;2023-04-30T11:32:23;60393.75;;;22.78;37.55
38054;BME280;23859;50.672;7.164;2023-04-30T11:34:50;60316.47;;;21.96;35.97
38054;BME280;23859;50.672;7.164;2023-04-30T11:37:20;60376.94;;;22.54;37.46
38054;BME280;23859;50.672;7.164;2023-04-30T11:39:47;60465.72;;;23.48;37.06
38054;BME280;23859;50.672;7.164;2023-04-30T11:42:18;60537.59;;;24.24;36.21
38054;BME280;23859;50.672;7.164;2023-04-30T11:44:44;60571.03;;;24.58;34.21
38054;BME280;23859;50.672;7.164;2023-04-30T11:47:13;60563.75;;;24.48;34.01
38054;BME280;23859;50.672;7.164;2023-04-30T11:49:40;60619.41;;;25.06;33.62
38054;BME280;23859;50.672;7.164;2023-04-30T11:52:06;60696.03;;;25.79;33.34
38054;BME280;23859;50.672;7.164;2023-04-30T11:54:36;60778.38;;;26.56;31.85
38054;BME280;23859;50.672;7.164;2023-04-30T11:57:03;60765.66;;;26.46;31.60
38054;BME280;23859;50.672;7.164;2023-04-30T11:59:38;60639.38;;;25.26;34.66
38054;BME280;23859;50.672;7.164;2023-04-30T12:02:06;60502.31;;;23.95;34.07
38054;BME280;23859;50.672;7.164;2023-04-30T12:04:32;60411.38;;;22.93;36.61
38054;BME280;23859;50.672;7.164;2023-04-30T12:06:59;60348.97;;;22.34;37.81
38054;BME280;23859;50.672;7.164;2023-04-30T12:09:27;60337.69;;;22.20;38.02
38054;BME280;23859;50.672;7.164;2023-04-30T12:11:54;60416.50;;;23.04;36.47
38054;BME280;23859;50.672;7.164;2023-04-30T12:14:24;60430.84;;;23.13;38.42
38054;BME280;23859;50.672;7.164;2023-04-30T12:17:02;60458.44;;;23.38;35.79
38054;BME280;23859;50.672;7.164;2023-04-30T12:19:28;60500.41;;;23.85;35.20
38054;BME280;23859;50.672;7.164;2023-04-30T12:21:54;60506.09;;;23.88;35.55
38054;BME280;23859;50.672;7.164;2023-04-30T12:24:21;60360.63;;;22.43;36.95
38054;BME280;23859;50.672;7.164;2023-04-30T12:26:52;60291.00;;;21.65;37.61
38054;BME280;23859;50.672;7.164;2023-04-30T12:29:20;60250.31;;;21.30;40.35
38054;BME280;23859;50.672;7.164;2023-04-30T12:31:48;60243.66;;;21.26;40.13
38054;BME280;23859;50.672;7.164;2023-04-30T12:34:16;60241.78;;;21.30;40.03
38054;BME280;23859;50.672;7.164;2023-04-30T12:36:43;60266.03;;;21.48;39.36
38054;BME280;23859;50.672;7.164;2023-04-30T12:39:12;60267.66;;;21.55;43.32
38054;BME280;23859;50.672;7.164;2023-04-30T12:41:43;60372.56;;;22.55;40.91
38054;BME280;23859;50.672;7.164;2023-04-30T12:44:21;60386.78;;;22.72;39.42
38054;BME280;23859;50.672;7.164;2023-04-30T12:46:49;60317.09;;;22.02;38.46
38054;BME280;23859;50.672;7.164;2023-04-30T12:49:26;60313.13;;;21.98;40.03
38054;BME280;23859;50.672;7.164;2023-04-30T12:51:59;60291.31;;;21.68;39.26
38054;BME280;23859;50.672;7.164;2023-04-30T12:54:30;60304.75;;;21.82;39.36
38054;BME280;23859;50.672;7.164;2023-04-30T12:57:04;60273.03;;;21.55;39.25
38054;BME280;23859;50.672;7.164;2023-04-30T12:59:33;60215.63;;;21.01;39.06
38054;BME280;23859;50.672;7.164;2023-04-30T13:02:13;60216.34;;;20.99;40.41
38054;BME280;23859;50.672;7.164;2023-04-30T13:04:43;60180.13;;;20.68;44.54
38054;BME280;23859;50.672;7.164;2023-04-30T13:07:09;60179.03;;;20.62;41.81
38054;BME280;23859;50.672;7.164;2023-04-30T13:09:36;60136.22;;;20.13;42.52
38054;BME280;23859;50.672;7.164;2023-04-30T13:12:03;60112.69;;;19.93;41.88
38054;BME280;23859;50.672;7.164;2023-04-30T13:14:30;60132.84;;;20.15;44.17
38054;BME280;23859;50.672;7.164;2023-04-30T13:16:57;60109.31;;;19.95;42.24
38054;BME280;23859;50.672;7.164;2023-04-30T13:19:23;60131.34;;;20.14;43.06
38054;BME280;23859;50.672;7.164;2023-04-30T13:21:50;60173.25;;;20.53;44.48
38054;BME280;23859;50.672;7.164;2023-04-30T13:24:16;60211.38;;;20.94;41.65